sensor_id;sensor_type;location;lat;lon;timestamp;pressure;altitude;pressure_sealevel;temperature;humidity
66857;BME280;53766;50.280;19.160;2023-07-30T00:01:28;97838.75;;;22.48;58.44
66857;BME280;53766;50.280;19.160;2023-07-30T00:03:55;97844.13;;;22.48;58.51
66857;BME280;53766;50.280;19.160;2023-07-30T00:06:23;97842.25;;;22.49;58.16
66857;BME280;53766;50.280;19.160;2023-07-30T00:08:51;97842.25;;;22.49;58.46
66857;BME280;53766;50.280;19.160;2023-07-30T00:11:18;97842.50;;;22.47;58.19
66857;BME280;53766;50.280;19.160;2023-07-30T00:13:46;97848.91;;;22.46;58.26
66857;BME280;53766;50.280;19.160;2023-07-30T00:16:13;97854.28;;;22.46;58.54
66857;BME280;53766;50.280;19.160;2023-07-30T00:18:41;97850.56;;;22.47;58.47
66857;BME280;53766;50.280;19.160;2023-07-30T00:21:09;97846.81;;;22.48;58.48
66857;BME280;53766;50.280;19.160;2023-07-30T00:23:36;97851.03;;;22.44;58.82
66857;BME280;53766;50.280;19.160;2023-07-30T00:26:04;97846.97;;;22.42;58.52
66857;BME280;53766;50.280;19.160;2023-07-30T00:28:31;97851.19;;;22.37;58.53
66857;BME280;53766;50.280;19.160;2023-07-30T00:30:59;97842.75;;;22.29;58.86
66857;BME280;53766;50.280;19.160;2023-07-30T00:33:27;97847.31;;;22.28;58.83
66857;BME280;53766;50.280;19.160;2023-07-30T00:35:54;97852.44;;;22.30;58.82
66857;BME280;53766;50.280;19.160;2023-07-30T00:38:22;97854.84;;;22.31;59.01
66857;BME280;53766;50.280;19.160;2023-07-30T00:40:49;97856.16;;;22.29;58.89
66857;BME280;53766;50.280;19.160;2023-07-30T00:43:17;97856.16;;;22.29;58.79
66857;BME280;53766;50.280;19.160;2023-07-30T00:45:44;97858.34;;;22.32;58.69
66857;BME280;53766;50.280;19.160;2023-07-30T00:48:13;97861.28;;;22.30;58.74
66857;BME280;53766;50.280;19.160;2023-07-30T00:50:41;97857.47;;;22.26;58.88
66857;BME280;53766;50.280;19.160;2023-07-30T00:53:09;97857.69;;;22.25;58.98
66857;BME280;53766;50.280;19.160;2023-07-30T00:55:38;97860.84;;;22.22;59.03
66857;BME280;53766;50.280;19.160;2023-07-30T00:58:06;97858.16;;;22.22;59.00
66857;BME280;53766;50.280;19.160;2023-07-30T01:00:35;97864.00;;;22.18;58.87
66857;BME280;53766;50.280;19.160;2023-07-30T01:03:02;97869.34;;;22.18;58.96
66857;BME280;53766;50.280;19.160;2023-07-30T01:05:30;97866.09;;;22.16;58.84
66857;BME280;53766;50.280;19.160;2023-07-30T01:07:58;97869.34;;;22.18;58.76
66857;BME280;53766;50.280;19.160;2023-07-30T01:10:26;97878.47;;;22.17;58.61
66857;BME280;53766;50.280;19.160;2023-07-30T01:12:54;97881.06;;;22.12;58.79
66857;BME280;53766;50.280;19.160;2023-07-30T01:15:22;97869.78;;;22.10;58.75
66857;BME280;53766;50.280;19.160;2023-07-30T01:17:50;97876.41;;;22.08;58.61
66857;BME280;53766;50.280;19.160;2023-07-30T01:20:18;97879.44;;;22.11;58.60
66857;BME280;53766;50.280;19.160;2023-07-30T01:22:45;97875.72;;;22.12;58.69
66857;BME280;53766;50.280;19.160;2023-07-30T01:25:14;97881.06;;;22.12;58.54
66857;BME280;53766;50.280;19.160;2023-07-30T01:27:48;97871.38;;;22.11;58.51
66857;BME280;53766;50.280;19.160;2023-07-30T01:30:22;97883.66;;;22.07;58.32
66857;BME280;53766;50.280;19.160;2023-07-30T01:32:52;97884.72;;;22.06;58.44
66857;BME280;53766;50.280;19.160;2023-07-30T01:35:21;97889.97;;;22.01;58.27
66857;BME280;53766;50.280;19.160;2023-07-30T01:37:50;97898.00;;;22.01;58.48
66857;BME280;53766;50.280;19.160;2023-07-30T01:40:20;97896.16;;;22.02;58.46
66857;BME280;53766;50.280;19.160;2023-07-30T01:42:50;97899.53;;;21.97;57.98
66857;BME280;53766;50.280;19.160;2023-07-30T01:45:18;97900.03;;;21.94;58.02
66857;BME280;53766;50.280;19.160;2023-07-30T01:47:46;97903.78;;;21.93;58.13
66857;BME280;53766;50.280;19.160;2023-07-30T01:50:14;97901.56;;;21.90;58.06
66857;BME280;53766;50.280;19.160;2023-07-30T01:52:41;97917.06;;;21.88;57.80
66857;BME280;53766;50.280;19.160;2023-07-30T01:55:09;97920.56;;;21.88;57.90
66857;BME280;53766;50.280;19.160;2023-07-30T01:57:36;97922.44;;;21.88;57.70
66857;BME280;53766;50.280;19.160;2023-07-30T02:00:05;97929.44;;;21.89;57.67
66857;BME280;53766;50.280;19.160;2023-07-30T02:02:32;97932.69;;;21.91;57.47
66857;BME280;53766;50.280;19.160;2023-07-30T02:05:00;97929.91;;;21.86;57.56
66857;BME280;53766;50.280;19.160;2023-07-30T02:07:28;97927.63;;;21.77;57.10
66857;BME280;53766;50.280;19.160;2023-07-30T02:09:56;97923.78;;;21.73;56.89
66857;BME280;53766;50.280;19.160;2023-07-30T02:12:23;97929.16;;;21.73;57.29
66857;BME280;53766;50.280;19.160;2023-07-30T02:14:51;97927.50;;;21.72;57.15
66857;BME280;53766;50.280;19.160;2023-07-30T02:17:18;97921.25;;;21.67;56.86
66857;BME280;53766;50.280;19.160;2023-07-30T02:19:46;97923.94;;;21.67;56.97
66857;BME280;53766;50.280;19.160;2023-07-30T02:22:13;97917.72;;;21.66;56.84
66857;BME280;53766;50.280;19.160;2023-07-30T02:24:41;97924.63;;;21.62;56.79
66857;BME280;53766;50.280;19.160;2023-07-30T02:27:09;97932.09;;;21.60;56.76
66857;BME280;53766;50.280;19.160;2023-07-30T02:29:36;97927.44;;;21.55;56.66
66857;BME280;53766;50.280;19.160;2023-07-30T02:32:04;97924.75;;;21.55;56.77
66857;BME280;53766;50.280;19.160;2023-07-30T02:34:32;97927.19;;;21.57;56.57
66857;BME280;53766;50.280;19.160;2023-07-30T02:36:59;97928.84;;;21.58;56.67
66857;BME280;53766;50.280;19.160;2023-07-30T02:39:27;97923.94;;;21.55;56.59
66857;BME280;53766;50.280;19.160;2023-07-30T02:41:54;97931.41;;;21.53;56.53
66857;BME280;53766;50.280;19.160;2023-07-30T02:44:22;97919.06;;;21.52;56.53
66857;BME280;53766;50.280;19.160;2023-07-30T02:46:50;97921.97;;;21.50;56.48
66857;BME280;53766;50.280;19.160;2023-07-30T02:49:17;97927.09;;;21.52;56.55
66857;BME280;53766;50.280;19.160;2023-07-30T02:51:45;97926.31;;;21.51;56.63
66857;BME280;53766;50.280;19.160;2023-07-30T02:54:16;97927.56;;;21.49;56.47
66857;BME280;53766;50.280;19.160;2023-07-30T02:56:43;97923.38;;;21.53;56.46
66857;BME280;53766;50.280;19.160;2023-07-30T02:59:11;97920.69;;;21.53;56.31
66857;BME280;53766;50.280;19.160;2023-07-30T03:01:39;97923.38;;;21.53;56.30
66857;BME280;53766;50.280;19.160;2023-07-30T03:04:07;97923.38;;;21.53;56.30
66857;BME280;53766;50.280;19.160;2023-07-30T03:06:34;97924.44;;;21.52;56.15
66857;BME280;53766;50.280;19.160;2023-07-30T03:09:02;97926.03;;;21.53;56.34
66857;BME280;53766;50.280;19.160;2023-07-30T03:11:30;97929.31;;;21.55;56.23
66857;BME280;53766;50.280;19.160;2023-07-30T03:13:57;97933.84;;;21.54;56.01
66857;BME280;53766;50.280;19.160;2023-07-30T03:16:25;97931.41;;;21.53;56.04
66857;BME280;53766;50.280;19.160;2023-07-30T03:18:53;97937.81;;;21.52;56.17
66857;BME280;53766;50.280;19.160;2023-07-30T03:21:20;97940.97;;;21.49;56.03
66857;BME280;53766;50.280;19.160;2023-07-30T03:23:48;97942.72;;;21.43;56.04
66857;BME280;53766;50.280;19.160;2023-07-30T03:26:15;97948.91;;;21.44;56.10
66857;BME280;53766;50.280;19.160;2023-07-30T03:28:43;97946.56;;;21.47;56.11
66857;BME280;53766;50.280;19.160;2023-07-30T03:31:10;97943.06;;;21.47;56.04
66857;BME280;53766;50.280;19.160;2023-07-30T03:33:39;97943.91;;;21.47;55.91
66857;BME280;53766;50.280;19.160;2023-07-30T03:36:11;97946.31;;;21.49;56.04
66857;BME280;53766;50.280;19.160;2023-07-30T03:38:39;97947.97;;;21.50;56.00
66857;BME280;53766;50.280;19.160;2023-07-30T03:41:07;97955.88;;;21.45;55.97
66857;BME280;53766;50.280;19.160;2023-07-30T03:43:35;97959.63;;;21.44;55.92
66857;BME280;53766;50.280;19.160;2023-07-30T03:46:02;97968.47;;;21.44;55.94
66857;BME280;53766;50.280;19.160;2023-07-30T03:48:30;97967.41;;;21.45;55.85
66857;BME280;53766;50.280;19.160;2023-07-30T03:50:58;97971.94;;;21.45;55.94
66857;BME280;53766;50.280;19.160;2023-07-30T03:53:25;97966.59;;;21.45;56.02
66857;BME280;53766;50.280;19.160;2023-07-30T03:55:53;97959.13;;;21.47;55.89
66857;BME280;53766;50.280;19.160;2023-07-30T03:58:21;97975.19;;;21.47;55.91
66857;BME280;53766;50.280;19.160;2023-07-30T04:00:48;97971.50;;;21.48;55.90
66857;BME280;53766;50.280;19.160;2023-07-30T04:03:16;97969.41;;;21.50;55.86
66857;BME280;53766;50.280;19.160;2023-07-30T04:05:44;97974.53;;;21.51;55.87
66857;BME280;53766;50.280;19.160;2023-07-30T04:08:11;97969.41;;;21.50;55.86
66857;BME280;53766;50.280;19.160;2023-07-30T04:10:39;97963.22;;;21.49;55.86
66857;BME280;53766;50.280;19.160;2023-07-30T04:13:07;97969.16;;;21.51;55.79
66857;BME280;53766;50.280;19.160;2023-07-30T04:15:35;97974.28;;;21.53;56.05
66857;BME280;53766;50.280;19.160;2023-07-30T04:18:02;97967.03;;;21.53;55.94
66857;BME280;53766;50.280;19.160;2023-07-30T04:20:30;97958.78;;;21.55;55.90
66857;BME280;53766;50.280;19.160;2023-07-30T04:22:58;97968.47;;;21.56;56.02
66857;BME280;53766;50.280;19.160;2023-07-30T04:25:25;97965.78;;;21.56;56.05
66857;BME280;53766;50.280;19.160;2023-07-30T04:27:53;97968.78;;;21.60;56.05
66857;BME280;53766;50.280;19.160;2023-07-30T04:30:21;97967.97;;;21.59;56.06
66857;BME280;53766;50.280;19.160;2023-07-30T04:32:48;97971.94;;;21.56;56.13
66857;BME280;53766;50.280;19.160;2023-07-30T04:35:16;97975.44;;;21.57;56.19
66857;BME280;53766;50.280;19.160;2023-07-30T04:37:43;97976.50;;;21.56;56.28
66857;BME280;53766;50.280;19.160;2023-07-30T04:40:11;97979.19;;;21.56;56.23
66857;BME280;53766;50.280;19.160;2023-07-30T04:42:39;97985.34;;;21.56;56.16
66857;BME280;53766;50.280;19.160;2023-07-30T04:45:06;97993.97;;;21.59;56.17
66857;BME280;53766;50.280;19.160;2023-07-30T04:47:34;97977.06;;;21.58;56.29
66857;BME280;53766;50.280;19.160;2023-07-30T04:50:02;97978.09;;;21.57;56.25
66857;BME280;53766;50.280;19.160;2023-07-30T04:52:29;97983.25;;;21.59;56.39
66857;BME280;53766;50.280;19.160;2023-07-30T04:54:57;97990.22;;;21.60;56.24
66857;BME280;53766;50.280;19.160;2023-07-30T04:57:25;97985.22;;;21.63;56.26
66857;BME280;53766;50.280;19.160;2023-07-30T04:59:53;97978.09;;;21.69;56.22
66857;BME280;53766;50.280;19.160;2023-07-30T05:02:20;97986.47;;;21.72;56.23
66857;BME280;53766;50.280;19.160;2023-07-30T05:04:48;97986.59;;;21.77;56.27
66857;BME280;53766;50.280;19.160;2023-07-30T05:07:16;97982.84;;;21.78;56.17
66857;BME280;53766;50.280;19.160;2023-07-30T05:09:43;97986.00;;;21.75;56.48
66857;BME280;53766;50.280;19.160;2023-07-30T05:12:11;97992.41;;;21.74;56.44
66857;BME280;53766;50.280;19.160;2023-07-30T05:14:38;97989.97;;;21.73;56.52
66857;BME280;53766;50.280;19.160;2023-07-30T05:17:06;97992.63;;;21.73;56.53
66857;BME280;53766;50.280;19.160;2023-07-30T05:19:33;97989.97;;;21.73;56.75
66857;BME280;53766;50.280;19.160;2023-07-30T05:22:01;97992.41;;;21.74;56.70
66857;BME280;53766;50.280;19.160;2023-07-30T05:24:29;98004.78;;;21.75;56.75
66857;BME280;53766;50.280;19.160;2023-07-30T05:26:56;98010.94;;;21.76;56.65
66857;BME280;53766;50.280;19.160;2023-07-30T05:29:24;98008.59;;;21.80;56.41
66857;BME280;53766;50.280;19.160;2023-07-30T05:31:51;98013.00;;;21.86;56.45
66857;BME280;53766;50.280;19.160;2023-07-30T05:34:19;98015.09;;;21.95;56.26
66857;BME280;53766;50.280;19.160;2023-07-30T05:36:47;98022.56;;;21.93;55.97
66857;BME280;53766;50.280;19.160;2023-07-30T05:39:14;98026.63;;;21.96;55.78
66857;BME280;53766;50.280;19.160;2023-07-30T05:41:42;98029.88;;;21.98;55.84
66857;BME280;53766;50.280;19.160;2023-07-30T05:44:09;98027.78;;;22.00;55.64
66857;BME280;53766;50.280;19.160;2023-07-30T05:46:37;98029.09;;;21.97;55.92
66857;BME280;53766;50.280;19.160;2023-07-30T05:49:04;98033.06;;;21.95;56.03
66857;BME280;53766;50.280;19.160;2023-07-30T05:51:32;98030.38;;;21.95;55.97
66857;BME280;53766;50.280;19.160;2023-07-30T05:53:59;98030.38;;;21.95;56.21
66857;BME280;53766;50.280;19.160;2023-07-30T05:56:27;98029.53;;;21.94;56.16
66857;BME280;53766;50.280;19.160;2023-07-30T05:58:55;98028.72;;;21.94;55.95
66857;BME280;53766;50.280;19.160;2023-07-30T06:01:22;98027.69;;;21.95;56.02
66857;BME280;53766;50.280;19.160;2023-07-30T06:03:50;98026.63;;;21.96;55.88
66857;BME280;53766;50.280;19.160;2023-07-30T06:06:18;98022.06;;;21.96;55.90
66857;BME280;53766;50.280;19.160;2023-07-30T06:08:46;98022.88;;;21.97;55.80
66857;BME280;53766;50.280;19.160;2023-07-30T06:11:14;98024.53;;;21.98;55.71
66857;BME280;53766;50.280;19.160;2023-07-30T06:13:42;98019.97;;;21.98;55.91
66857;BME280;53766;50.280;19.160;2023-07-30T06:16:10;98026.16;;;21.99;55.93
66857;BME280;53766;50.280;19.160;2023-07-30T06:18:37;98018.94;;;22.00;55.76
66857;BME280;53766;50.280;19.160;2023-07-30T06:21:05;98026.72;;;22.01;55.88
66857;BME280;53766;50.280;19.160;2023-07-30T06:23:32;98029.41;;;22.01;55.52
66857;BME280;53766;50.280;19.160;2023-07-30T06:26:00;98025.09;;;22.00;55.63
66857;BME280;53766;50.280;19.160;2023-07-30T06:28:27;98024.03;;;22.01;55.54
66857;BME280;53766;50.280;19.160;2023-07-30T06:30:55;98014.97;;;22.02;55.99
66857;BME280;53766;50.280;19.160;2023-07-30T06:33:23;98015.53;;;22.04;55.97
66857;BME280;53766;50.280;19.160;2023-07-30T06:35:53;98016.13;;;22.06;56.07
66857;BME280;53766;50.280;19.160;2023-07-30T06:38:22;98026.84;;;22.06;55.69
66857;BME280;53766;50.280;19.160;2023-07-30T06:40:50;98025.19;;;22.05;55.53
66857;BME280;53766;50.280;19.160;2023-07-30T06:43:17;98025.78;;;22.07;55.37
66857;BME280;53766;50.280;19.160;2023-07-30T06:45:45;98025.31;;;22.10;55.62
66857;BME280;53766;50.280;19.160;2023-07-30T06:48:12;98021.81;;;22.10;55.56
66857;BME280;53766;50.280;19.160;2023-07-30T06:50:41;98018.09;;;22.11;55.65
66857;BME280;53766;50.280;19.160;2023-07-30T06:53:08;98014.34;;;22.12;55.39
66857;BME280;53766;50.280;19.160;2023-07-30T06:55:36;98006.28;;;22.12;55.35
66857;BME280;53766;50.280;19.160;2023-07-30T06:58:04;98007.00;;;22.07;55.17
66857;BME280;53766;50.280;19.160;2023-07-30T07:02:58;98009.03;;;22.00;54.51
66857;BME280;53766;50.280;19.160;2023-07-30T07:05:26;98007.94;;;22.01;54.83
66857;BME280;53766;50.280;19.160;2023-07-30T07:10:21;97995.97;;;22.04;54.76
66857;BME280;53766;50.280;19.160;2023-07-30T07:12:49;98004.81;;;22.04;54.75
66857;BME280;53766;50.280;19.160;2023-07-30T07:15:17;98018.22;;;22.04;54.49
66857;BME280;53766;50.280;19.160;2023-07-30T07:17:45;98018.81;;;22.06;54.82
66857;BME280;53766;50.280;19.160;2023-07-30T07:20:12;98020.66;;;22.06;54.59
66857;BME280;53766;50.280;19.160;2023-07-30T07:22:40;98026.84;;;22.06;54.65
66857;BME280;53766;50.280;19.160;2023-07-30T07:25:08;98015.84;;;22.08;54.91
66857;BME280;53766;50.280;19.160;2023-07-30T07:27:35;98020.41;;;22.07;54.95
66857;BME280;53766;50.280;19.160;2023-07-30T07:30:03;98016.69;;;22.08;54.80
66857;BME280;53766;50.280;19.160;2023-07-30T07:32:31;98015.84;;;22.08;54.48
66857;BME280;53766;50.280;19.160;2023-07-30T07:35:05;98013.19;;;22.08;54.76
66857;BME280;53766;50.280;19.160;2023-07-30T07:37:33;98013.44;;;22.06;54.65
66857;BME280;53766;50.280;19.160;2023-07-30T07:40:01;98017.72;;;22.07;54.83
66857;BME280;53766;50.280;19.160;2023-07-30T07:42:30;98025.56;;;22.09;54.76
66857;BME280;53766;50.280;19.160;2023-07-30T07:44:58;98017.28;;;22.10;54.72
66857;BME280;53766;50.280;19.160;2023-07-30T07:47:25;98023.22;;;22.12;55.08
66857;BME280;53766;50.280;19.160;2023-07-30T07:49:53;98022.16;;;22.13;54.92
66857;BME280;53766;50.280;19.160;2023-07-30T07:52:21;98020.28;;;22.14;55.22
66857;BME280;53766;50.280;19.160;2023-07-30T07:54:48;98012.56;;;22.17;55.10
66857;BME280;53766;50.280;19.160;2023-07-30T07:57:16;98010.47;;;22.19;55.00
66857;BME280;53766;50.280;19.160;2023-07-30T07:59:44;98007.56;;;22.21;55.18
66857;BME280;53766;50.280;19.160;2023-07-30T08:02:12;98001.97;;;22.23;55.17
66857;BME280;53766;50.280;19.160;2023-07-30T08:04:40;98010.59;;;22.25;55.24
66857;BME280;53766;50.280;19.160;2023-07-30T08:07:08;98005.81;;;22.27;55.20
66857;BME280;53766;50.280;19.160;2023-07-30T08:09:35;98007.44;;;22.28;54.99
66857;BME280;53766;50.280;19.160;2023-07-30T08:12:03;98001.25;;;22.27;55.14
66857;BME280;53766;50.280;19.160;2023-07-30T08:14:31;98000.44;;;22.27;54.74
66857;BME280;53766;50.280;19.160;2023-07-30T08:16:58;98005.56;;;22.28;55.00
66857;BME280;53766;50.280;19.160;2023-07-30T08:19:26;98009.63;;;22.31;54.97
66857;BME280;53766;50.280;19.160;2023-07-30T08:21:54;98008.56;;;22.32;55.07
66857;BME280;53766;50.280;19.160;2023-07-30T08:24:24;98011.81;;;22.34;55.19
66857;BME280;53766;50.280;19.160;2023-07-30T08:26:51;98014.28;;;22.35;55.00
66857;BME280;53766;50.280;19.160;2023-07-30T08:29:19;98023.41;;;22.34;55.11
66857;BME280;53766;50.280;19.160;2023-07-30T08:31:47;98032.84;;;22.37;55.04
66857;BME280;53766;50.280;19.160;2023-07-30T08:34:14;98029.91;;;22.38;55.06
66857;BME280;53766;50.280;19.160;2023-07-30T08:36:42;98027.78;;;22.41;55.13
66857;BME280;53766;50.280;19.160;2023-07-30T08:39:10;98032.91;;;22.42;55.21
66857;BME280;53766;50.280;19.160;2023-07-30T08:41:37;98032.69;;;22.44;55.05
66857;BME280;53766;50.280;19.160;2023-07-30T08:44:06;98032.44;;;22.45;54.89
66857;BME280;53766;50.280;19.160;2023-07-30T08:46:34;98035.72;;;22.47;55.12
66857;BME280;53766;50.280;19.160;2023-07-30T08:49:01;98045.38;;;22.48;55.62
66857;BME280;53766;50.280;19.160;2023-07-30T08:51:29;98039.50;;;22.51;55.76
66857;BME280;53766;50.280;19.160;2023-07-30T08:54:00;98046.53;;;22.52;55.62
66857;BME280;53766;50.280;19.160;2023-07-30T08:56:27;98042.78;;;22.53;55.55
66857;BME280;53766;50.280;19.160;2023-07-30T08:58:56;98035.78;;;22.52;55.39
66857;BME280;53766;50.280;19.160;2023-07-30T09:01:37;98043.63;;;22.54;55.49
66857;BME280;53766;50.280;19.160;2023-07-30T09:04:06;98044.41;;;22.54;55.68
66857;BME280;53766;50.280;19.160;2023-07-30T09:06:34;98042.53;;;22.55;55.64
66857;BME280;53766;50.280;19.160;2023-07-30T09:09:02;98049.78;;;22.54;56.21
66857;BME280;53766;50.280;19.160;2023-07-30T09:11:30;98044.66;;;22.53;55.75
66857;BME280;53766;50.280;19.160;2023-07-30T09:14:01;98036.59;;;22.53;55.65
66857;BME280;53766;50.280;19.160;2023-07-30T09:16:29;98041.16;;;22.52;55.95
66857;BME280;53766;50.280;19.160;2023-07-30T09:18:56;98040.09;;;22.53;55.18
66857;BME280;53766;50.280;19.160;2023-07-30T09:21:31;98037.41;;;22.53;55.10
66857;BME280;53766;50.280;19.160;2023-07-30T09:24:02;98043.34;;;22.55;55.25
66857;BME280;53766;50.280;19.160;2023-07-30T09:26:45;98042.31;;;22.56;55.36
66857;BME280;53766;50.280;19.160;2023-07-30T09:29:13;98041.25;;;22.57;55.37
66857;BME280;53766;50.280;19.160;2023-07-30T09:31:53;98038.56;;;22.57;55.43
66857;BME280;53766;50.280;19.160;2023-07-30T09:34:24;98040.22;;;22.58;55.54
66857;BME280;53766;50.280;19.160;2023-07-30T09:36:53;98036.44;;;22.59;55.47
66857;BME280;53766;50.280;19.160;2023-07-30T09:39:22;98032.16;;;22.58;55.43
66857;BME280;53766;50.280;19.160;2023-07-30T09:41:51;98029.22;;;22.60;55.71
66857;BME280;53766;50.280;19.160;2023-07-30T09:44:20;98034.34;;;22.62;55.92
66857;BME280;53766;50.280;19.160;2023-07-30T09:46:49;98032.22;;;22.64;55.97
66857;BME280;53766;50.280;19.160;2023-07-30T09:49:17;98028.50;;;22.65;55.96
66857;BME280;53766;50.280;19.160;2023-07-30T09:51:45;98022.06;;;22.66;56.16
66857;BME280;53766;50.280;19.160;2023-07-30T09:54:14;98026.38;;;22.67;56.09
66857;BME280;53766;50.280;19.160;2023-07-30T09:56:42;98021.00;;;22.67;56.08
66857;BME280;53766;50.280;19.160;2023-07-30T09:59:10;98028.00;;;22.68;55.83
66857;BME280;53766;50.280;19.160;2023-07-30T10:01:46;98013.53;;;22.69;55.65
66857;BME280;53766;50.280;19.160;2023-07-30T10:04:19;98025.09;;;22.69;55.88
66857;BME280;53766;50.280;19.160;2023-07-30T10:06:59;98014.34;;;22.69;55.32
66857;BME280;53766;50.280;19.160;2023-07-30T10:09:32;98012.72;;;22.68;55.52
66857;BME280;53766;50.280;19.160;2023-07-30T10:12:01;98015.97;;;22.70;55.58
66857;BME280;53766;50.280;19.160;2023-07-30T10:14:31;98010.84;;;22.69;55.30
66857;BME280;53766;50.280;19.160;2023-07-30T10:16:59;98020.53;;;22.70;55.23
66857;BME280;53766;50.280;19.160;2023-07-30T10:19:28;98017.03;;;22.69;55.14
66857;BME280;53766;50.280;19.160;2023-07-30T10:25:00;98015.75;;;22.72;55.24
66857;BME280;53766;50.280;19.160;2023-07-30T10:27:38;98014.66;;;22.73;55.49
66857;BME280;53766;50.280;19.160;2023-07-30T10:30:10;98014.66;;;22.73;55.30
66857;BME280;53766;50.280;19.160;2023-07-30T10:33:23;98010.13;;;22.73;55.51
66857;BME280;53766;50.280;19.160;2023-07-30T10:38:19;98016.31;;;22.74;55.87
66857;BME280;53766;50.280;19.160;2023-07-30T10:41:09;98011.53;;;22.76;55.08
66857;BME280;53766;50.280;19.160;2023-07-30T10:43:40;98013.38;;;22.75;55.10
66857;BME280;53766;50.280;19.160;2023-07-30T10:46:11;97996.44;;;22.75;55.16
66857;BME280;53766;50.280;19.160;2023-07-30T10:48:40;97997.25;;;22.75;54.77
66857;BME280;53766;50.280;19.160;2023-07-30T10:51:11;98000.78;;;22.76;55.04
66857;BME280;53766;50.280;19.160;2023-07-30T10:53:41;97992.72;;;22.76;55.02
66857;BME280;53766;50.280;19.160;2023-07-30T10:56:10;98003.47;;;22.76;54.92
66857;BME280;53766;50.280;19.160;2023-07-30T10:58:37;97995.16;;;22.77;54.82
66857;BME280;53766;50.280;19.160;2023-07-30T11:01:07;97994.34;;;22.77;55.04
66857;BME280;53766;50.280;19.160;2023-07-30T11:03:36;98002.16;;;22.78;55.18
66857;BME280;53766;50.280;19.160;2023-07-30T11:06:05;98004.59;;;22.80;55.17
66857;BME280;53766;50.280;19.160;2023-07-30T11:08:42;97998.75;;;22.83;55.15
66857;BME280;53766;50.280;19.160;2023-07-30T11:11:10;98004.09;;;22.83;55.26
66857;BME280;53766;50.280;19.160;2023-07-30T11:13:40;98005.72;;;22.84;55.16
66857;BME280;53766;50.280;19.160;2023-07-30T11:16:09;98008.97;;;22.86;55.09
66857;BME280;53766;50.280;19.160;2023-07-30T11:18:38;97997.44;;;22.86;53.96
66857;BME280;53766;50.280;19.160;2023-07-30T11:21:07;98004.69;;;22.85;53.77
66857;BME280;53766;50.280;19.160;2023-07-30T11:23:36;97999.31;;;22.85;54.09
66857;BME280;53766;50.280;19.160;2023-07-30T11:26:07;98005.25;;;22.87;54.35
66857;BME280;53766;50.280;19.160;2023-07-30T11:28:39;97995.31;;;22.88;54.14
66857;BME280;53766;50.280;19.160;2023-07-30T11:31:18;97994.50;;;22.87;54.14
66857;BME280;53766;50.280;19.160;2023-07-30T11:33:48;97991.84;;;22.87;53.67
66857;BME280;53766;50.280;19.160;2023-07-30T11:36:19;98003.63;;;22.86;52.83
66857;BME280;53766;50.280;19.160;2023-07-30T11:38:47;97996.63;;;22.85;53.15
66857;BME280;53766;50.280;19.160;2023-07-30T11:41:15;97987.50;;;22.86;53.68
66857;BME280;53766;50.280;19.160;2023-07-30T11:43:43;97990.19;;;22.86;53.87
66857;BME280;53766;50.280;19.160;2023-07-30T11:46:14;97994.50;;;22.87;53.63
66857;BME280;53766;50.280;19.160;2023-07-30T11:48:47;97990.75;;;22.88;53.44
66857;BME280;53766;50.280;19.160;2023-07-30T11:51:25;97989.16;;;22.87;53.25
66857;BME280;53766;50.280;19.160;2023-07-30T11:56:25;97992.41;;;22.89;53.54
66857;BME280;53766;50.280;19.160;2023-07-30T11:58:58;97984.59;;;22.88;53.72
66857;BME280;53766;50.280;19.160;2023-07-30T12:01:32;97980.03;;;22.88;53.96
66857;BME280;53766;50.280;19.160;2023-07-30T12:04:05;97985.38;;;22.88;53.90
66857;BME280;53766;50.280;19.160;2023-07-30T12:06:47;97988.34;;;22.87;53.98
66857;BME280;53766;50.280;19.160;2023-07-30T12:09:20;97978.41;;;22.87;53.81
66857;BME280;53766;50.280;19.160;2023-07-30T12:11:58;97973.84;;;22.88;53.78
66857;BME280;53766;50.280;19.160;2023-07-30T12:17:01;97977.34;;;22.88;53.65
66857;BME280;53766;50.280;19.160;2023-07-30T12:19:28;97982.69;;;22.88;53.44
66857;BME280;53766;50.280;19.160;2023-07-30T12:21:56;97980.03;;;22.88;53.76
66857;BME280;53766;50.280;19.160;2023-07-30T12:24:23;97987.84;;;22.90;53.87
66857;BME280;53766;50.280;19.160;2023-07-30T12:26:51;97981.66;;;22.89;53.98
66857;BME280;53766;50.280;19.160;2023-07-30T12:29:22;97977.91;;;22.90;53.93
66857;BME280;53766;50.280;19.160;2023-07-30T12:31:50;97973.38;;;22.91;53.87
66857;BME280;53766;50.280;19.160;2023-07-30T12:34:22;97972.53;;;22.90;53.89
66857;BME280;53766;50.280;19.160;2023-07-30T12:36:50;97971.50;;;22.91;54.18
66857;BME280;53766;50.280;19.160;2023-07-30T12:39:17;97968.00;;;22.91;54.49
66857;BME280;53766;50.280;19.160;2023-07-30T12:41:45;97974.19;;;22.91;54.30
66857;BME280;53766;50.280;19.160;2023-07-30T12:44:12;97971.50;;;22.91;54.24
66857;BME280;53766;50.280;19.160;2023-07-30T12:46:40;97963.44;;;22.91;54.53
66857;BME280;53766;50.280;19.160;2023-07-30T12:49:07;97968.81;;;22.91;54.44
66857;BME280;53766;50.280;19.160;2023-07-30T12:51:35;97968.81;;;22.91;54.36
66857;BME280;53766;50.280;19.160;2023-07-30T12:54:03;97974.19;;;22.91;54.54
66857;BME280;53766;50.280;19.160;2023-07-30T12:56:31;97969.63;;;22.92;54.35
66857;BME280;53766;50.280;19.160;2023-07-30T12:59:02;97963.44;;;22.91;54.20
66857;BME280;53766;50.280;19.160;2023-07-30T13:01:30;97959.69;;;22.92;54.42
66857;BME280;53766;50.280;19.160;2023-07-30T13:03:58;97961.31;;;22.93;54.48
66857;BME280;53766;50.280;19.160;2023-07-30T13:06:26;97957.56;;;22.94;54.39
66857;BME280;53766;50.280;19.160;2023-07-30T13:08:53;97962.94;;;22.94;54.63
66857;BME280;53766;50.280;19.160;2023-07-30T13:11:21;97955.44;;;22.96;54.57
66857;BME280;53766;50.280;19.160;2023-07-30T13:13:48;97956.25;;;22.97;54.65